Allen Jay, North Carolina
Current Conditions -  °F | °C
As of 3:54 AM on Monday 24 Nov 2014 (Local Time) from KGSO Reporting Station
Broken Clouds Broken Clouds  
Wind Chill: 61°   Ceiling: 2300
Heat Index: 61°   Visibility: 10mi
Dew Point: 56°   Wind: 15mph
Humidity: 83%   Direction: 210°SSW
Pressure: 29.73"   Gusts: 23mph
Location:  35.9136°N, 79.9465°W
Report Text: KGSO 240854Z 21013G20KT 10SM BKN023 BKN033 16/13 A2973 RMK AO2 SLP064 T01610133 51017
Loading
Personal Weather Stations






























Interactive Weather Map New forecast layout! Learn more

10-Day Weather Forecast

Advertisements
Track Severe Weather on mobile